createdAt,value
2023-04-21T00:00:04.117Z,65.17
2023-04-21T00:00:14.372Z,65.17
2023-04-21T00:00:24.652Z,65.17
2023-04-21T00:00:34.906Z,65.17
2023-04-21T00:00:45.160Z,65.17
2023-04-21T00:00:55.416Z,65.17
2023-04-21T00:01:05.682Z,65.17
2023-04-21T00:01:15.960Z,65.17
2023-04-21T00:01:26.212Z,65.17
2023-04-21T00:01:36.461Z,65.17
2023-04-21T00:01:46.732Z,65.17
2023-04-21T00:01:56.991Z,65.28
2023-04-21T00:02:07.255Z,65.28
2023-04-21T00:02:17.629Z,65.28
2023-04-21T00:02:27.959Z,65.28
2023-04-21T00:02:38.363Z,65.28
2023-04-21T00:02:48.756Z,65.17
2023-04-21T00:02:59.094Z,65.17
2023-04-21T00:03:09.301Z,65.28
2023-04-21T00:03:19.884Z,65.28
2023-04-21T00:03:30.310Z,65.28
2023-04-21T00:03:40.425Z,65.28
2023-04-21T00:03:50.734Z,65.28
2023-04-21T00:04:01.134Z,65.17
2023-04-21T00:04:11.430Z,65.28
2023-04-21T00:04:21.731Z,65.28
2023-04-21T00:04:31.977Z,65.28
2023-04-21T00:04:42.245Z,65.28
2023-04-21T00:04:52.481Z,65.28
2023-04-21T00:05:02.826Z,65.28
2023-04-21T00:05:13.157Z,65.28
2023-04-21T00:05:23.321Z,65.28
2023-04-21T00:05:33.643Z,65.28
2023-04-21T00:05:43.797Z,65.28
2023-04-21T00:05:54.102Z,65.38
2023-04-21T00:06:04.355Z,65.28
2023-04-21T00:06:14.622Z,65.28
2023-04-21T00:06:24.890Z,65.28
2023-04-21T00:06:35.148Z,65.28
2023-04-21T00:06:45.400Z,65.28
2023-04-21T00:06:55.680Z,65.28
2023-04-21T00:07:05.942Z,65.28
2023-04-21T00:07:16.184Z,65.28
2023-04-21T00:07:26.445Z,65.28
2023-04-21T00:07:36.706Z,65.28
2023-04-21T00:07:46.967Z,65.28
2023-04-21T00:07:57.229Z,65.17
2023-04-21T00:08:07.489Z,65.17
2023-04-21T00:08:17.751Z,65.28
2023-04-21T00:08:28.020Z,65.28
2023-04-21T00:08:38.305Z,65.28
2023-04-21T00:08:48.568Z,65.28
2023-04-21T00:08:58.830Z,65.28
2023-04-21T00:09:09.083Z,65.31
2023-04-21T00:09:19.563Z,65.28
2023-04-21T00:09:29.731Z,65.28
2023-04-21T00:09:39.996Z,65.31
2023-04-21T00:09:50.271Z,65.20
2023-04-21T00:10:00.509Z,65.17
2023-04-21T00:10:10.777Z,65.20
2023-04-21T00:10:21.057Z,65.20
2023-04-21T00:10:31.304Z,65.20
2023-04-21T00:10:41.564Z,65.20
2023-04-21T00:10:51.831Z,65.31
2023-04-21T00:11:02.086Z,65.31
2023-04-21T00:11:12.343Z,65.31
2023-04-21T00:11:22.624Z,65.31
2023-04-21T00:11:32.868Z,65.41
2023-04-21T00:11:43.123Z,65.41
2023-04-21T00:11:53.390Z,65.41
2023-04-21T00:12:03.661Z,65.41
2023-04-21T00:12:13.910Z,65.41
2023-04-21T00:12:24.169Z,65.52
2023-04-21T00:12:34.454Z,65.52
2023-04-21T00:12:44.707Z,65.52
2023-04-21T00:12:54.996Z,65.62
2023-04-21T00:13:05.266Z,65.62
2023-04-21T00:13:15.504Z,65.62
2023-04-21T00:13:25.782Z,65.72
2023-04-21T00:13:36.041Z,65.72
2023-04-21T00:13:46.328Z,65.72
2023-04-21T00:13:56.583Z,65.72
2023-04-21T00:14:06.837Z,65.72
2023-04-21T00:14:17.093Z,65.72
2023-04-21T00:14:27.357Z,65.72
2023-04-21T00:14:37.619Z,65.72
2023-04-21T00:14:47.878Z,65.72
2023-04-21T00:14:58.154Z,65.83
2023-04-21T00:15:08.402Z,65.83
2023-04-21T00:15:18.656Z,65.83
2023-04-21T00:15:28.920Z,65.83
2023-04-21T00:15:39.236Z,65.83
2023-04-21T00:15:49.496Z,65.83
2023-04-21T00:15:59.829Z,65.83
2023-04-21T00:16:10.086Z,65.83
2023-04-21T00:16:20.391Z,65.83
2023-04-21T00:16:30.887Z,65.83
2023-04-21T00:16:41.187Z,65.83
2023-04-21T00:16:51.352Z,65.83
2023-04-21T00:17:01.604Z,65.83
2023-04-21T00:17:11.870Z,65.83
2023-04-21T00:17:22.128Z,65.83
2023-04-21T00:17:32.429Z,65.83
2023-04-21T00:17:42.716Z,65.83
2023-04-21T00:17:53.006Z,65.83
2023-04-21T00:18:03.338Z,65.83
2023-04-21T00:18:13.593Z,65.83
2023-04-21T00:18:23.863Z,65.72
2023-04-21T00:18:34.136Z,65.72
2023-04-21T00:18:44.384Z,65.83
2023-04-21T00:18:54.645Z,65.83
2023-04-21T00:19:04.913Z,65.83
2023-04-21T00:19:15.167Z,65.83
2023-04-21T00:19:25.425Z,65.83
2023-04-21T00:19:35.692Z,65.83
2023-04-21T00:19:45.986Z,65.83
2023-04-21T00:19:56.205Z,65.83
2023-04-21T00:20:06.468Z,65.83
2023-04-21T00:20:16.755Z,65.83
2023-04-21T00:20:26.988Z,65.83
2023-04-21T00:20:37.253Z,65.83
2023-04-21T00:20:47.508Z,65.83
2023-04-21T00:20:57.768Z,65.83
2023-04-21T00:21:08.033Z,65.83
2023-04-21T00:21:18.377Z,65.83
2023-04-21T00:21:28.640Z,65.83
2023-04-21T00:21:38.896Z,65.83
2023-04-21T00:21:49.157Z,65.83
2023-04-21T00:21:59.399Z,65.83
2023-04-21T00:22:09.667Z,65.83
2023-04-21T00:22:19.927Z,65.83
2023-04-21T00:22:30.179Z,65.83
2023-04-21T00:22:40.448Z,65.83
2023-04-21T00:22:50.720Z,65.92
2023-04-21T00:23:00.980Z,65.92
2023-04-21T00:23:11.225Z,65.92
2023-04-21T00:23:21.483Z,65.92
2023-04-21T00:23:31.772Z,65.83
2023-04-21T00:23:42.026Z,65.83
2023-04-21T00:23:52.284Z,65.83
2023-04-21T00:24:02.563Z,65.83
2023-04-21T00:24:12.819Z,65.83
2023-04-21T00:24:23.079Z,65.83
2023-04-21T00:24:33.338Z,65.83
2023-04-21T00:24:43.599Z,65.83
2023-04-21T00:24:53.878Z,65.83
2023-04-21T00:25:04.186Z,65.83
2023-04-21T00:25:14.399Z,65.83
2023-04-21T00:25:24.660Z,65.83
2023-04-21T00:25:34.930Z,65.83
2023-04-21T00:25:45.198Z,65.83
2023-04-21T00:25:55.475Z,65.83
2023-04-21T00:26:05.703Z,65.83
2023-04-21T00:26:15.962Z,65.83
2023-04-21T00:26:26.242Z,65.83
2023-04-21T00:26:36.492Z,65.83
2023-04-21T00:26:46.750Z,65.83
2023-04-21T00:26:57.030Z,65.92
2023-04-21T00:27:07.264Z,65.92
2023-04-21T00:27:17.525Z,65.92
2023-04-21T00:27:27.782Z,65.92
2023-04-21T00:27:38.047Z,65.83
2023-04-21T00:27:48.334Z,65.83
2023-04-21T00:27:58.568Z,65.72
2023-04-21T00:28:08.846Z,65.72
2023-04-21T00:28:19.116Z,65.72
2023-04-21T00:28:29.413Z,65.83
2023-04-21T00:28:39.660Z,65.83
2023-04-21T00:28:49.915Z,65.83
2023-04-21T00:29:00.281Z,65.83
2023-04-21T00:29:10.498Z,65.83
2023-04-21T00:29:20.977Z,65.83
2023-04-21T00:29:31.066Z,65.83
2023-04-21T00:29:41.344Z,65.83
2023-04-21T00:29:51.592Z,65.83
2023-04-21T00:30:01.880Z,65.83
2023-04-21T00:30:12.104Z,65.83
2023-04-21T00:30:22.373Z,65.92
2023-04-21T00:30:32.659Z,65.92
2023-04-21T00:30:42.919Z,65.92
2023-04-21T00:30:53.161Z,65.83
2023-04-21T00:31:03.470Z,65.83
2023-04-21T00:31:13.734Z,65.83
2023-04-21T00:31:24.033Z,65.83
2023-04-21T00:31:34.362Z,65.83
2023-04-21T00:31:44.663Z,65.83
2023-04-21T00:31:55.086Z,65.83
2023-04-21T00:32:05.188Z,65.83
2023-04-21T00:32:15.448Z,65.83
2023-04-21T00:32:25.738Z,65.83
2023-04-21T00:32:36.041Z,65.83
2023-04-21T00:32:46.306Z,65.83
2023-04-21T00:32:56.579Z,65.83
2023-04-21T00:33:06.822Z,65.83
2023-04-21T00:33:17.090Z,65.83
2023-04-21T00:33:27.349Z,65.83
2023-04-21T00:33:37.648Z,65.83
2023-04-21T00:33:47.920Z,65.83
2023-04-21T00:33:58.196Z,65.83
2023-04-21T00:34:08.462Z,65.83
2023-04-21T00:34:18.701Z,65.83
2023-04-21T00:34:28.960Z,65.92
2023-04-21T00:34:39.222Z,65.92
2023-04-21T00:34:49.481Z,65.83
2023-04-21T00:34:59.740Z,65.83
2023-04-21T00:35:10.005Z,65.83
2023-04-21T00:35:20.287Z,65.92
2023-04-21T00:35:30.552Z,65.92
2023-04-21T00:35:40.822Z,65.92
2023-04-21T00:35:51.059Z,65.92
2023-04-21T00:36:01.317Z,65.92
2023-04-21T00:36:11.614Z,65.92
2023-04-21T00:36:21.839Z,65.92
2023-04-21T00:36:32.116Z,65.83
2023-04-21T00:36:42.365Z,65.83
2023-04-21T00:36:52.630Z,65.83
2023-04-21T00:37:02.919Z,65.83
2023-04-21T00:37:13.180Z,65.83
2023-04-21T00:37:23.437Z,65.83
2023-04-21T00:37:33.697Z,65.83
2023-04-21T00:37:43.958Z,65.72
2023-04-21T00:37:54.216Z,65.72
2023-04-21T00:38:04.484Z,65.72
2023-04-21T00:38:14.736Z,65.72
2023-04-21T00:38:25.016Z,65.72
2023-04-21T00:38:35.315Z,65.72
2023-04-21T00:38:45.612Z,65.72
2023-04-21T00:38:55.862Z,65.83
2023-04-21T00:39:06.118Z,65.83
2023-04-21T00:39:16.601Z,65.83
2023-04-21T00:39:26.744Z,65.83
2023-04-21T00:39:37.006Z,65.83
2023-04-21T00:39:47.285Z,65.83
2023-04-21T00:39:57.528Z,65.83
2023-04-21T00:40:07.813Z,65.83
2023-04-21T00:40:18.057Z,65.83
2023-04-21T00:40:28.318Z,65.83
2023-04-21T00:40:38.578Z,65.83
2023-04-21T00:40:48.837Z,65.83
2023-04-21T00:40:59.105Z,65.92
2023-04-21T00:41:09.360Z,65.92
2023-04-21T00:41:19.621Z,65.92
2023-04-21T00:41:29.880Z,65.92
2023-04-21T00:41:40.142Z,65.92
2023-04-21T00:41:50.408Z,65.92
2023-04-21T00:42:00.671Z,65.92
2023-04-21T00:42:10.925Z,65.92
2023-04-21T00:42:21.201Z,65.92
2023-04-21T00:42:31.459Z,65.92
2023-04-21T00:42:41.721Z,65.92
2023-04-21T00:42:51.977Z,65.92
2023-04-21T00:43:02.245Z,65.83
2023-04-21T00:43:12.495Z,65.83
2023-04-21T00:43:22.758Z,65.83
2023-04-21T00:43:33.041Z,65.83
2023-04-21T00:43:43.300Z,65.92
2023-04-21T00:43:53.564Z,65.92
2023-04-21T00:44:03.834Z,65.83
2023-04-21T00:44:14.093Z,65.92
2023-04-21T00:44:24.348Z,65.92
2023-04-21T00:44:34.610Z,65.92
2023-04-21T00:44:44.863Z,65.92
2023-04-21T00:44:55.129Z,65.92
2023-04-21T00:45:05.414Z,65.92
2023-04-21T00:45:15.657Z,65.92
2023-04-21T00:45:25.912Z,66.03
2023-04-21T00:45:36.182Z,66.03
2023-04-21T00:45:46.432Z,66.03
2023-04-21T00:45:56.690Z,66.03
2023-04-21T00:46:06.959Z,66.03
2023-04-21T00:46:17.296Z,66.03
2023-04-21T00:46:27.544Z,66.03
2023-04-21T00:46:37.836Z,65.92
2023-04-21T00:46:48.129Z,65.92
2023-04-21T00:46:58.480Z,65.92
2023-04-21T00:47:08.815Z,65.92
2023-04-21T00:47:19.116Z,65.92
2023-04-21T00:47:29.420Z,65.92
2023-04-21T00:47:39.743Z,65.92
2023-04-21T00:47:50.048Z,65.95
2023-04-21T00:48:00.380Z,65.92
2023-04-21T00:48:10.620Z,65.92
2023-04-21T00:48:20.888Z,65.92
2023-04-21T00:48:31.161Z,65.92
2023-04-21T00:48:41.425Z,65.92
2023-04-21T00:48:51.689Z,65.92
2023-04-21T00:49:01.945Z,66.03
2023-04-21T00:49:12.202Z,66.03
2023-04-21T00:49:22.474Z,66.03
2023-04-21T00:49:32.725Z,66.06
2023-04-21T00:49:42.987Z,66.03
2023-04-21T00:49:53.244Z,66.06
2023-04-21T00:50:03.513Z,66.03
2023-04-21T00:50:13.772Z,66.06
2023-04-21T00:50:24.062Z,66.06
2023-04-21T00:50:34.301Z,66.06
2023-04-21T00:50:44.638Z,66.06
2023-04-21T00:50:54.878Z,66.06
2023-04-21T00:51:05.169Z,66.03
2023-04-21T00:51:15.409Z,66.03
2023-04-21T00:51:25.666Z,66.06
2023-04-21T00:51:35.931Z,66.13
2023-04-21T00:51:46.193Z,66.16
2023-04-21T00:51:56.475Z,66.13
2023-04-21T00:52:06.723Z,66.16
2023-04-21T00:52:16.986Z,66.13
2023-04-21T00:52:27.259Z,66.16
2023-04-21T00:52:37.515Z,66.16
2023-04-21T00:52:47.760Z,66.16
2023-04-21T00:52:58.025Z,66.16
2023-04-21T00:53:08.281Z,66.16
2023-04-21T00:53:18.537Z,66.16
2023-04-21T00:53:28.803Z,66.13
2023-04-21T00:53:39.088Z,66.16
2023-04-21T00:53:49.339Z,66.16
2023-04-21T00:53:59.618Z,66.16
2023-04-21T00:54:09.947Z,66.13
2023-04-21T00:54:20.204Z,66.06
2023-04-21T00:54:30.467Z,66.16
2023-04-21T00:54:40.724Z,66.16
2023-04-21T00:54:51.005Z,66.16
2023-04-21T00:55:01.274Z,66.06
2023-04-21T00:55:11.520Z,66.06
2023-04-21T00:55:21.791Z,66.06
2023-04-21T00:55:32.039Z,66.06
2023-04-21T00:55:42.302Z,66.16
2023-04-21T00:55:52.595Z,66.16
2023-04-21T00:56:02.886Z,66.16
2023-04-21T00:56:13.116Z,66.16
2023-04-21T00:56:23.382Z,66.16
2023-04-21T00:56:33.643Z,66.16
2023-04-21T00:56:43.895Z,66.16
2023-04-21T00:56:54.178Z,66.16
2023-04-21T00:57:04.443Z,66.16
2023-04-21T00:57:14.736Z,66.16
2023-04-21T00:57:24.968Z,66.16
2023-04-21T00:57:35.221Z,66.16
2023-04-21T00:57:45.485Z,66.16
2023-04-21T00:57:55.753Z,66.16
2023-04-21T00:58:06.018Z,66.16
2023-04-21T00:58:16.272Z,66.16
2023-04-21T00:58:26.621Z,66.16
2023-04-21T00:58:36.862Z,66.16
2023-04-21T00:58:47.131Z,66.16
2023-04-21T00:58:57.386Z,66.16
2023-04-21T00:59:07.655Z,66.27
2023-04-21T00:59:18.247Z,66.27
2023-04-21T00:59:28.249Z,66.37
2023-04-21T00:59:38.532Z,66.37
2023-04-21T00:59:48.761Z,66.37
2023-04-21T00:59:59.025Z,66.37
2023-04-21T01:00:09.285Z,66.27
2023-04-21T01:00:19.546Z,66.27
2023-04-21T01:00:29.912Z,66.27
2023-04-21T01:00:40.224Z,66.27
2023-04-21T01:00:50.520Z,66.27
2023-04-21T01:01:00.887Z,66.27
2023-04-21T01:01:11.180Z,66.27
2023-04-21T01:01:21.543Z,66.27
2023-04-21T01:01:31.810Z,66.27
2023-04-21T01:01:42.043Z,66.27
2023-04-21T01:01:52.307Z,66.16
2023-04-21T01:02:02.661Z,66.16
2023-04-21T01:02:13.019Z,66.16
2023-04-21T01:02:23.449Z,66.16
2023-04-21T01:02:33.661Z,66.16
2023-04-21T01:02:44.003Z,66.16
2023-04-21T01:02:54.241Z,66.27
2023-04-21T01:03:04.617Z,66.27
2023-04-21T01:03:14.894Z,66.27
2023-04-21T01:03:25.228Z,66.27
2023-04-21T01:03:35.581Z,66.27
2023-04-21T01:03:45.955Z,66.27
2023-04-21T01:03:56.187Z,66.27
2023-04-21T01:04:06.380Z,66.27
2023-04-21T01:04:16.653Z,66.27
2023-04-21T01:04:26.884Z,66.27
2023-04-21T01:04:37.144Z,66.27
2023-04-21T01:04:47.426Z,66.27
2023-04-21T01:04:57.676Z,66.27
2023-04-21T01:05:07.948Z,66.37
2023-04-21T01:05:18.231Z,66.37
2023-04-21T01:05:28.496Z,66.37
2023-04-21T01:05:38.745Z,66.47
2023-04-21T01:05:48.986Z,66.47
2023-04-21T01:05:59.245Z,66.47
2023-04-21T01:06:09.509Z,66.47
2023-04-21T01:06:19.777Z,66.47
2023-04-21T01:06:30.038Z,66.47
2023-04-21T01:06:40.323Z,66.47
2023-04-21T01:06:50.589Z,66.47
2023-04-21T01:07:00.826Z,66.47
2023-04-21T01:07:11.099Z,66.47
2023-04-21T01:07:21.357Z,66.47
2023-04-21T01:07:31.666Z,66.47
2023-04-21T01:07:41.946Z,66.47
2023-04-21T01:07:52.174Z,66.47
2023-04-21T01:08:02.434Z,66.47
2023-04-21T01:08:12.696Z,66.47
2023-04-21T01:08:22.973Z,66.47
2023-04-21T01:08:33.235Z,66.37
2023-04-21T01:08:43.496Z,66.37
2023-04-21T01:08:53.806Z,66.37
2023-04-21T01:09:04.080Z,66.37
2023-04-21T01:09:14.316Z,66.37
2023-04-21T01:09:24.591Z,66.37
2023-04-21T01:09:34.841Z,66.37
2023-04-21T01:09:45.099Z,66.37
2023-04-21T01:09:55.362Z,66.37
2023-04-21T01:10:05.626Z,66.37
2023-04-21T01:10:15.887Z,66.37
2023-04-21T01:10:26.148Z,66.37
2023-04-21T01:10:36.410Z,66.37
2023-04-21T01:10:46.677Z,66.37
2023-04-21T01:10:56.925Z,66.37
2023-04-21T01:11:07.191Z,66.37
2023-04-21T01:11:17.466Z,66.37
2023-04-21T01:11:27.714Z,66.37
2023-04-21T01:11:37.975Z,66.37
2023-04-21T01:11:48.230Z,66.37
2023-04-21T01:11:58.501Z,66.37
2023-04-21T01:12:08.762Z,66.37
2023-04-21T01:12:19.026Z,66.37
2023-04-21T01:12:29.281Z,66.37
2023-04-21T01:12:39.557Z,66.47
2023-04-21T01:12:49.811Z,66.47
2023-04-21T01:13:00.059Z,66.47
2023-04-21T01:13:10.320Z,66.47
2023-04-21T01:13:20.592Z,66.47
2023-04-21T01:13:30.859Z,66.47
2023-04-21T01:13:41.117Z,66.47
2023-04-21T01:13:51.379Z,66.47
2023-04-21T01:14:01.657Z,66.47
2023-04-21T01:14:11.920Z,66.47
2023-04-21T01:14:22.201Z,66.58
2023-04-21T01:14:32.457Z,66.58
2023-04-21T01:14:42.706Z,66.58
2023-04-21T01:14:52.957Z,66.58
2023-04-21T01:15:03.281Z,66.58
2023-04-21T01:15:13.538Z,66.58
2023-04-21T01:15:23.764Z,66.58
2023-04-21T01:15:34.023Z,66.58
2023-04-21T01:15:44.290Z,66.58
2023-04-21T01:15:54.543Z,66.58
2023-04-21T01:16:04.873Z,66.58
2023-04-21T01:16:15.222Z,66.58
2023-04-21T01:16:25.540Z,66.58
2023-04-21T01:16:35.857Z,66.58
2023-04-21T01:16:46.112Z,66.67
2023-04-21T01:16:56.412Z,66.67
2023-04-21T01:17:06.738Z,66.67
2023-04-21T01:17:16.998Z,66.58
2023-04-21T01:17:27.292Z,66.58
2023-04-21T01:17:37.540Z,66.58
2023-04-21T01:17:47.843Z,66.58
2023-04-21T01:17:58.144Z,66.47
2023-04-21T01:18:08.478Z,66.47
2023-04-21T01:18:18.747Z,66.47
2023-04-21T01:18:29.000Z,66.47
2023-04-21T01:18:39.276Z,66.47
2023-04-21T01:18:49.545Z,66.47
2023-04-21T01:18:59.794Z,66.58
2023-04-21T01:19:10.057Z,66.58
2023-04-21T01:19:20.558Z,66.58
2023-04-21T01:19:30.734Z,66.58
2023-04-21T01:19:40.989Z,66.58
2023-04-21T01:19:51.276Z,66.58
2023-04-21T01:20:01.511Z,66.58
2023-04-21T01:20:11.781Z,66.67
2023-04-21T01:20:22.041Z,66.58
2023-04-21T01:20:32.335Z,66.58
2023-04-21T01:20:42.567Z,66.58
2023-04-21T01:20:52.827Z,66.58
2023-04-21T01:21:03.077Z,66.67
2023-04-21T01:21:13.360Z,66.67
2023-04-21T01:21:23.605Z,66.67
2023-04-21T01:21:33.863Z,66.67
2023-04-21T01:21:44.118Z,66.67
2023-04-21T01:21:54.384Z,66.78
2023-04-21T01:22:04.643Z,66.78
2023-04-21T01:22:14.907Z,66.67
2023-04-21T01:22:25.174Z,66.67
2023-04-21T01:22:35.431Z,66.67
2023-04-21T01:22:45.691Z,66.67
2023-04-21T01:22:56.017Z,66.67
2023-04-21T01:23:06.226Z,66.78
2023-04-21T01:23:16.484Z,66.78
2023-04-21T01:23:26.761Z,66.78
2023-04-21T01:23:37.012Z,66.78
2023-04-21T01:23:47.301Z,66.78
2023-04-21T01:23:57.571Z,66.88
2023-04-21T01:24:07.836Z,66.88
2023-04-21T01:24:18.097Z,66.88
2023-04-21T01:24:28.347Z,66.88
2023-04-21T01:24:38.607Z,66.99
2023-04-21T01:24:48.887Z,66.99
2023-04-21T01:24:59.132Z,66.99
2023-04-21T01:25:09.395Z,66.99
2023-04-21T01:25:19.650Z,66.88
2023-04-21T01:25:29.916Z,66.88
2023-04-21T01:25:40.173Z,66.88
2023-04-21T01:25:50.431Z,66.99
2023-04-21T01:26:00.704Z,66.99
2023-04-21T01:26:10.971Z,66.99
2023-04-21T01:26:21.226Z,66.99
2023-04-21T01:26:31.477Z,66.99
2023-04-21T01:26:41.744Z,66.99
2023-04-21T01:26:51.996Z,66.99
2023-04-21T01:27:02.272Z,66.99
2023-04-21T01:27:12.514Z,66.99
2023-04-21T01:27:22.783Z,66.99
2023-04-21T01:27:33.046Z,66.99
2023-04-21T01:27:43.307Z,66.99
2023-04-21T01:27:53.559Z,66.99
2023-04-21T01:28:03.823Z,66.88
2023-04-21T01:28:14.104Z,66.88
2023-04-21T01:28:24.381Z,66.88
2023-04-21T01:28:34.638Z,66.88
2023-04-21T01:28:44.904Z,66.88
2023-04-21T01:28:55.158Z,66.88
2023-04-21T01:29:05.423Z,66.88
2023-04-21T01:29:15.705Z,66.88
2023-04-21T01:29:25.950Z,66.88
2023-04-21T01:29:36.204Z,66.88
2023-04-21T01:29:46.467Z,66.88
2023-04-21T01:29:56.734Z,66.88
2023-04-21T01:30:06.995Z,66.88
2023-04-21T01:30:17.252Z,66.88
2023-04-21T01:30:27.506Z,66.99
2023-04-21T01:30:37.767Z,66.99
2023-04-21T01:30:48.038Z,66.99
2023-04-21T01:30:58.304Z,66.99
2023-04-21T01:31:08.547Z,66.99
2023-04-21T01:31:18.825Z,66.99
2023-04-21T01:31:29.105Z,66.99
2023-04-21T01:31:39.398Z,66.99
2023-04-21T01:31:49.698Z,66.88
2023-04-21T01:32:00.008Z,66.88
2023-04-21T01:32:10.324Z,66.99
2023-04-21T01:32:20.744Z,66.99
2023-04-21T01:32:30.925Z,66.99
2023-04-21T01:32:41.224Z,66.99
2023-04-21T01:32:51.577Z,66.99
2023-04-21T01:33:01.831Z,66.99
2023-04-21T01:33:12.196Z,66.99
2023-04-21T01:33:22.469Z,67.09
2023-04-21T01:33:32.754Z,67.09
2023-04-21T01:33:43.004Z,67.19
2023-04-21T01:33:53.265Z,67.09
2023-04-21T01:34:03.529Z,67.09
2023-04-21T01:34:13.788Z,67.19
2023-04-21T01:34:24.076Z,67.19
2023-04-21T01:34:34.369Z,67.19
2023-04-21T01:34:44.597Z,67.19
2023-04-21T01:34:54.849Z,67.30
2023-04-21T01:35:05.111Z,67.30
2023-04-21T01:35:15.374Z,67.30
2023-04-21T01:35:25.633Z,67.30
2023-04-21T01:35:35.910Z,67.30
2023-04-21T01:35:46.155Z,67.30
2023-04-21T01:35:56.411Z,67.30
2023-04-21T01:36:06.688Z,67.30
2023-04-21T01:36:16.937Z,67.30
2023-04-21T01:36:27.194Z,67.19
2023-04-21T01:36:37.457Z,67.19
2023-04-21T01:36:47.715Z,67.19
2023-04-21T01:36:57.989Z,67.19
2023-04-21T01:37:08.248Z,67.19
2023-04-21T01:37:18.510Z,67.19
2023-04-21T01:37:28.767Z,67.19
2023-04-21T01:37:39.023Z,67.09
2023-04-21T01:37:49.287Z,67.09
2023-04-21T01:37:59.545Z,67.19
2023-04-21T01:38:09.846Z,67.19
2023-04-21T01:38:20.138Z,67.19
2023-04-21T01:38:30.395Z,67.19
2023-04-21T01:38:40.652Z,67.19
2023-04-21T01:38:50.914Z,67.19
2023-04-21T01:39:01.192Z,67.19
2023-04-21T01:39:11.446Z,67.19
2023-04-21T01:39:21.733Z,67.19
2023-04-21T01:39:32.004Z,67.09
2023-04-21T01:39:42.249Z,67.09
2023-04-21T01:39:52.546Z,67.09
2023-04-21T01:40:02.819Z,67.09
2023-04-21T01:40:13.076Z,67.09
2023-04-21T01:40:23.329Z,67.09
2023-04-21T01:40:33.587Z,67.09
2023-04-21T01:40:43.846Z,67.09
2023-04-21T01:40:54.127Z,67.09
2023-04-21T01:41:04.370Z,67.09
2023-04-21T01:41:14.648Z,67.09
2023-04-21T01:41:24.898Z,67.09
2023-04-21T01:41:35.155Z,67.09
2023-04-21T01:41:45.587Z,66.99
2023-04-21T01:41:55.678Z,66.99
2023-04-21T01:42:05.927Z,66.99
2023-04-21T01:42:16.187Z,66.99
2023-04-21T01:42:26.442Z,66.99
2023-04-21T01:42:36.705Z,66.99
2023-04-21T01:42:46.969Z,66.99
2023-04-21T01:42:57.272Z,66.88
2023-04-21T01:43:07.523Z,66.88
2023-04-21T01:43:17.786Z,66.99
2023-04-21T01:43:28.060Z,66.99
2023-04-21T01:43:38.336Z,66.99
2023-04-21T01:43:48.594Z,66.88
2023-04-21T01:43:58.861Z,66.88
2023-04-21T01:44:09.119Z,66.88
2023-04-21T01:44:19.382Z,66.88
2023-04-21T01:44:29.644Z,66.88
2023-04-21T01:44:39.905Z,66.88
2023-04-21T01:44:50.177Z,66.88
2023-04-21T01:45:00.450Z,66.88
2023-04-21T01:45:10.728Z,66.88
2023-04-21T01:45:20.990Z,66.88
2023-04-21T01:45:31.251Z,66.88
2023-04-21T01:45:41.554Z,66.88
2023-04-21T01:45:51.873Z,66.88
2023-04-21T01:46:02.192Z,66.99
2023-04-21T01:46:12.459Z,66.99
2023-04-21T01:46:22.751Z,66.99
2023-04-21T01:46:33.143Z,66.99
2023-04-21T01:46:43.295Z,66.99
2023-04-21T01:46:53.542Z,66.99
2023-04-21T01:47:03.810Z,66.99
2023-04-21T01:47:14.067Z,66.99
2023-04-21T01:47:24.326Z,66.99
2023-04-21T01:47:34.607Z,66.99
2023-04-21T01:47:44.884Z,66.99
2023-04-21T01:47:55.156Z,66.88
2023-04-21T01:48:05.485Z,66.88
2023-04-21T01:48:15.815Z,66.78
2023-04-21T01:48:26.051Z,66.78
2023-04-21T01:48:36.311Z,66.67
2023-04-21T01:48:46.574Z,66.67
2023-04-21T01:48:56.836Z,66.67
2023-04-21T01:49:07.104Z,66.78
2023-04-21T01:49:17.549Z,66.67
2023-04-21T01:49:27.674Z,66.67
2023-04-21T01:49:37.940Z,66.67
2023-04-21T01:49:48.203Z,66.67
2023-04-21T01:49:58.483Z,66.67
2023-04-21T01:50:08.733Z,66.67
2023-04-21T01:50:18.989Z,66.67
2023-04-21T01:50:29.283Z,66.78
2023-04-21T01:50:39.551Z,66.78
2023-04-21T01:50:49.791Z,66.78
2023-04-21T01:51:00.112Z,66.91
2023-04-21T01:51:10.383Z,66.99
2023-04-21T01:51:20.683Z,67.09
2023-04-21T01:51:30.941Z,67.19
2023-04-21T01:51:41.201Z,67.19
2023-04-21T01:51:51.482Z,67.19
2023-04-21T01:52:01.890Z,67.09
2023-04-21T01:52:12.124Z,67.09
2023-04-21T01:52:22.654Z,67.09
2023-04-21T01:52:32.982Z,66.99
2023-04-21T01:52:42.991Z,66.88
2023-04-21T01:52:53.275Z,66.88
2023-04-21T01:53:03.648Z,66.88
2023-04-21T01:53:14.420Z,66.91
2023-04-21T01:53:24.375Z,66.78
2023-04-21T01:53:34.697Z,66.78
2023-04-21T01:53:45.067Z,66.78
2023-04-21T01:53:55.319Z,66.78
2023-04-21T01:54:05.595Z,66.78
2023-04-21T01:54:15.847Z,66.81
2023-04-21T01:54:26.106Z,66.78
2023-04-21T01:54:36.369Z,66.81
2023-04-21T01:54:46.625Z,66.78
2023-04-21T01:54:56.922Z,66.78
2023-04-21T01:55:07.215Z,66.91
2023-04-21T01:55:17.445Z,66.88
2023-04-21T01:55:27.711Z,66.88
2023-04-21T01:55:37.960Z,66.88
2023-04-21T01:55:48.229Z,66.91
2023-04-21T01:55:58.483Z,66.88
2023-04-21T01:56:08.772Z,66.91
2023-04-21T01:56:19.016Z,66.88
2023-04-21T01:56:29.362Z,66.91
2023-04-21T01:56:39.754Z,66.88
2023-04-21T01:56:50.031Z,66.91
2023-04-21T01:57:00.284Z,66.91
2023-04-21T01:57:10.552Z,66.88
2023-04-21T01:57:20.801Z,66.78
2023-04-21T01:57:31.063Z,66.88
2023-04-21T01:57:41.323Z,66.91
2023-04-21T01:57:51.597Z,66.91
2023-04-21T01:58:01.854Z,66.91
2023-04-21T01:58:12.115Z,66.78
2023-04-21T01:58:22.382Z,66.81
2023-04-21T01:58:32.653Z,66.78
2023-04-21T01:58:42.905Z,66.81
2023-04-21T01:58:53.163Z,66.91
2023-04-21T01:59:03.428Z,66.88
2023-04-21T01:59:13.685Z,66.81
2023-04-21T01:59:23.942Z,66.81
2023-04-21T01:59:34.249Z,66.81
2023-04-21T01:59:44.549Z,66.81
2023-04-21T01:59:54.791Z,66.81
2023-04-21T02:00:05.052Z,66.81
2023-04-21T02:00:15.300Z,66.81
2023-04-21T02:00:25.558Z,66.81
2023-04-21T02:00:35.824Z,66.81
2023-04-21T02:00:46.084Z,66.81
2023-04-21T02:00:56.379Z,66.81
2023-04-21T02:01:06.817Z,66.81
2023-04-21T02:01:17.220Z,66.91
2023-04-21T02:01:27.518Z,67.02
2023-04-21T02:01:37.806Z,67.02
2023-04-21T02:01:48.122Z,67.12
2023-04-21T02:01:58.577Z,67.12
2023-04-21T02:02:08.909Z,67.12
2023-04-21T02:02:19.106Z,67.12
2023-04-21T02:02:29.506Z,67.12
2023-04-21T02:02:39.747Z,67.02
2023-04-21T02:02:49.992Z,67.02
2023-04-21T02:03:00.451Z,67.02
2023-04-21T02:03:10.770Z,67.02
2023-04-21T02:03:21.009Z,67.02
2023-04-21T02:03:31.403Z,67.02
2023-04-21T02:03:41.613Z,67.02
2023-04-21T02:03:51.846Z,67.02
2023-04-21T02:04:02.134Z,67.02
2023-04-21T02:04:12.412Z,67.02
2023-04-21T02:04:23.011Z,67.02
2023-04-21T02:04:33.238Z,67.02
2023-04-21T02:04:43.258Z,67.02
2023-04-21T02:04:53.557Z,67.02
2023-04-21T02:05:03.795Z,67.12
2023-04-21T02:05:14.044Z,67.12
2023-04-21T02:05:24.303Z,67.12
2023-04-21T02:05:34.591Z,67.12
2023-04-21T02:05:44.854Z,67.12
2023-04-21T02:05:55.095Z,67.12
2023-04-21T02:06:05.352Z,67.12
2023-04-21T02:06:15.612Z,67.12
2023-04-21T02:06:25.893Z,67.12
2023-04-21T02:06:36.147Z,67.12
2023-04-21T02:06:46.396Z,67.12
2023-04-21T02:06:56.660Z,67.12
2023-04-21T02:07:06.917Z,67.12
2023-04-21T02:07:17.187Z,67.02
2023-04-21T02:07:27.439Z,67.02
2023-04-21T02:07:37.725Z,67.02
2023-04-21T02:07:47.957Z,67.02
2023-04-21T02:07:58.222Z,67.02
2023-04-21T02:08:08.502Z,67.02
2023-04-21T02:08:18.754Z,67.02
2023-04-21T02:08:29.013Z,67.02
2023-04-21T02:08:39.278Z,67.02
2023-04-21T02:08:49.539Z,67.02
2023-04-21T02:08:59.793Z,67.02
2023-04-21T02:09:10.058Z,67.02
2023-04-21T02:09:20.594Z,67.02
2023-04-21T02:09:30.572Z,67.02
2023-04-21T02:09:40.838Z,67.02
2023-04-21T02:09:51.098Z,67.02
2023-04-21T02:10:01.369Z,67.02
2023-04-21T02:10:11.632Z,67.02
2023-04-21T02:10:21.892Z,67.02
2023-04-21T02:10:32.144Z,67.02
2023-04-21T02:10:42.412Z,67.02
2023-04-21T02:10:52.752Z,67.02
2023-04-21T02:11:03.011Z,67.02
2023-04-21T02:11:13.251Z,67.02
2023-04-21T02:11:23.527Z,67.12
2023-04-21T02:11:33.776Z,67.22
2023-04-21T02:11:44.036Z,67.22
2023-04-21T02:11:54.299Z,67.22
2023-04-21T02:12:04.575Z,67.22
2023-04-21T02:12:14.821Z,67.22